Airfield :







YOU CAN JOIN US ON...

 
LOGIN :

Register | Disclaimer

   EN    FR    IT 

 









Legend :    VFR   Marginal VFR   IFR   Intensive IFR   Very Intensive IFR
Visi :
Ceiling :
>= 8 km
>= 3000ft
5 to 8 km
1000 to 3000 ft
1500m to 5 km
500 to 1000 ft
800 to 1500m
200 to 500 ft
< 800m
< 200 ft
Symbols :   Thunderstorms  Fog  Heavy snow  Heavy precipitations  Wind > 20 kt






- Airport Elevation : 328 ft


KGFL - Floyd Bennett Memorial

CURRENT METAR :
  • 071953Z AUTO 29010G18KT 10SM CLR 17/M08 A2973 RMK AO2 SLP071 T01671083

EXPIRED METARs :
  • 071853Z AUTO 27009G18KT 10SM CLR 16/M09 A2976 RMK AO2 SLP081 T01561094
  • 071753Z AUTO 30014G20KT 10SM CLR 16/M08 A2980 RMK AO2 SLP094 T01611083 10161 20050 57030

TAF KGFL
Valid from the 07 at 18:00 until the 08 at 18:00 UTC


071724Z 0718/0818 29009G17KT P6SM FEW070 SCT250
FM072300 VRB04KT P6SM SCT200
FM080300 00000KT P6SM VCSH OVC060
FM080500 00000KT 5SM -SHRA BR OVC025
FM081100 03005KT 5SM BR VCSH BKN020 OVC035
FM081500 04005KT P6SM BKN050



MET'MAP, your aeronautical weather chart ! - Copyright ORBIFLY December 2007 - Disclaimer

ORBIFLY MET'MAP TEAM :

Programming & Development : Alexandra Zaïnal
Concept & original design : Baudouin d'Aumeries
Assistance for programming : Marc-Olivier Méhu
Technical & hardware support : Manuel Goepfert

Contact : metmap@orbifly.com




SOURCES & CREDITS :

   NOAA